createdAt,value
2023-05-15T00:00:44.464Z,14.48
2023-05-15T00:03:12.536Z,14.48
2023-05-15T00:05:39.615Z,14.47
2023-05-15T00:08:06.389Z,14.42
2023-05-15T00:10:33.122Z,14.39
2023-05-15T00:12:59.939Z,14.36
2023-05-15T00:15:26.929Z,14.35
2023-05-15T00:17:54.166Z,14.39
2023-05-15T00:20:21.009Z,14.36
2023-05-15T00:22:47.951Z,14.30
2023-05-15T00:25:15.083Z,14.28
2023-05-15T00:27:41.941Z,14.24
2023-05-15T00:30:09.231Z,14.21
2023-05-15T00:32:36.102Z,14.24
2023-05-15T00:35:02.983Z,14.24
2023-05-15T00:37:30.967Z,14.21
2023-05-15T00:39:57.795Z,14.20
2023-05-15T00:42:25.284Z,14.20
2023-05-15T00:44:52.647Z,14.20
2023-05-15T00:47:20.807Z,14.18
2023-05-15T00:49:47.852Z,14.16
2023-05-15T00:52:14.974Z,14.12
2023-05-15T00:54:42.296Z,14.09
2023-05-15T00:57:09.230Z,14.08
2023-05-15T00:59:36.165Z,14.07
2023-05-15T01:02:03.116Z,14.05
2023-05-15T01:04:29.935Z,14.02
2023-05-15T01:06:56.948Z,13.96
2023-05-15T01:09:24.264Z,13.90
2023-05-15T01:11:51.222Z,13.82
2023-05-15T01:14:18.201Z,13.74
2023-05-15T01:16:46.251Z,13.65
2023-05-15T01:19:13.448Z,13.58
2023-05-15T01:21:46.093Z,13.51
2023-05-15T01:24:32.015Z,13.43
2023-05-15T01:27:01.749Z,13.36
2023-05-15T01:29:40.958Z,13.29
2023-05-15T01:32:21.116Z,13.23
2023-05-15T01:35:14.432Z,13.18
2023-05-15T01:37:44.355Z,13.11
2023-05-15T01:40:11.923Z,13.12
2023-05-15T01:42:38.942Z,13.09
2023-05-15T01:45:06.289Z,12.98
2023-05-15T01:47:51.284Z,12.86
2023-05-15T01:50:18.180Z,12.88
2023-05-15T01:52:45.909Z,12.82
2023-05-15T01:55:12.805Z,12.78
2023-05-15T01:57:39.715Z,12.78
2023-05-15T02:00:07.050Z,12.77
2023-05-15T02:02:40.995Z,12.76
2023-05-15T02:05:08.118Z,12.76
2023-05-15T02:07:34.916Z,12.70
2023-05-15T02:10:01.962Z,12.66
2023-05-15T02:12:30.039Z,12.59
2023-05-15T02:14:56.862Z,12.58
2023-05-15T02:17:24.128Z,12.61
2023-05-15T02:19:51.169Z,12.64
2023-05-15T02:22:17.951Z,12.63
2023-05-15T02:24:44.932Z,12.61
2023-05-15T02:27:22.920Z,12.56
2023-05-15T02:30:08.728Z,12.59
2023-05-15T02:32:48.621Z,12.61
2023-05-15T02:35:34.102Z,12.68
2023-05-15T02:38:01.363Z,12.69
2023-05-15T02:40:28.180Z,12.72
2023-05-15T02:42:55.092Z,12.77
2023-05-15T02:45:22.074Z,12.78
2023-05-15T02:47:50.709Z,12.78
2023-05-15T02:50:17.583Z,12.78
2023-05-15T02:52:44.451Z,12.77
2023-05-15T02:55:11.251Z,12.80
2023-05-15T02:57:38.070Z,12.82
2023-05-15T03:00:07.683Z,12.86
2023-05-15T03:02:34.653Z,12.92
2023-05-15T03:05:01.500Z,12.87
2023-05-15T03:07:28.387Z,12.83
2023-05-15T03:09:55.246Z,12.83
2023-05-15T03:12:22.015Z,12.88
2023-05-15T03:14:49.048Z,12.94
2023-05-15T03:17:16.169Z,13.03
2023-05-15T03:19:43.645Z,13.09
2023-05-15T03:22:10.544Z,13.19
2023-05-15T03:24:37.369Z,13.32
2023-05-15T03:27:04.945Z,13.39
2023-05-15T03:29:32.182Z,13.49
2023-05-15T03:31:59.016Z,13.58
2023-05-15T03:34:28.990Z,13.71
2023-05-15T03:36:56.293Z,13.76
2023-05-15T03:39:23.074Z,13.87
2023-05-15T03:41:49.835Z,13.99
2023-05-15T03:44:16.664Z,14.11
2023-05-15T03:46:43.635Z,14.22
2023-05-15T03:49:11.127Z,14.27
2023-05-15T03:51:38.021Z,14.35
2023-05-15T03:54:05.904Z,14.45
2023-05-15T03:56:32.938Z,14.55
2023-05-15T03:58:59.773Z,14.69
2023-05-15T04:01:26.777Z,14.84
2023-05-15T04:03:53.727Z,14.98
2023-05-15T04:06:20.818Z,15.16
2023-05-15T04:08:47.627Z,15.33
2023-05-15T04:11:14.429Z,15.46
2023-05-15T04:13:41.228Z,15.64
2023-05-15T04:16:08.665Z,15.78
2023-05-15T04:18:35.540Z,15.93
2023-05-15T04:21:02.432Z,16.06
2023-05-15T04:23:29.219Z,16.13
2023-05-15T04:25:57.349Z,16.17
2023-05-15T04:28:24.199Z,16.25
2023-05-15T04:30:51.135Z,16.30
2023-05-15T04:33:17.975Z,16.33
2023-05-15T04:35:44.818Z,16.38
2023-05-15T04:38:11.939Z,16.45
2023-05-15T04:40:38.710Z,16.52
2023-05-15T04:43:06.047Z,16.59
2023-05-15T04:45:32.814Z,16.70
2023-05-15T04:47:59.722Z,16.77
2023-05-15T04:50:26.718Z,16.86
2023-05-15T04:52:54.248Z,16.95
2023-05-15T04:55:21.072Z,17.05
2023-05-15T04:57:48.053Z,17.15
2023-05-15T05:00:15.321Z,17.20
2023-05-15T05:02:43.764Z,17.27
2023-05-15T05:05:10.630Z,17.35
2023-05-15T05:07:37.456Z,17.45
2023-05-15T05:10:05.612Z,17.55
2023-05-15T05:12:32.612Z,17.70
2023-05-15T05:14:59.570Z,17.84
2023-05-15T05:17:26.751Z,17.98
2023-05-15T05:19:54.695Z,18.11
2023-05-15T05:22:21.516Z,18.17
2023-05-15T05:24:48.377Z,18.34
2023-05-15T05:27:15.395Z,18.53
2023-05-15T05:29:42.634Z,18.68
2023-05-15T05:32:09.483Z,18.80
2023-05-15T05:34:36.319Z,18.96
2023-05-15T05:37:03.240Z,19.07
2023-05-15T05:39:30.548Z,19.19
2023-05-15T05:41:57.613Z,19.29
2023-05-15T05:44:24.690Z,19.42
2023-05-15T05:46:52.648Z,19.53
2023-05-15T05:49:22.637Z,19.66
2023-05-15T05:51:49.521Z,19.78
2023-05-15T05:54:18.320Z,19.84
2023-05-15T05:56:45.449Z,19.92
2023-05-15T05:59:12.287Z,20.02
2023-05-15T06:01:39.114Z,20.16
2023-05-15T06:04:06.149Z,20.28
2023-05-15T06:06:33.454Z,20.42
2023-05-15T06:09:00.266Z,20.57
2023-05-15T06:11:27.238Z,20.69
2023-05-15T06:13:54.155Z,20.77
2023-05-15T06:16:21.726Z,20.84
2023-05-15T06:18:48.669Z,20.96
2023-05-15T06:21:15.518Z,21.01
2023-05-15T06:23:42.473Z,21.05
2023-05-15T06:26:09.581Z,21.06
2023-05-15T06:28:36.530Z,21.07
2023-05-15T06:31:03.774Z,21.06
2023-05-15T06:33:31.409Z,21.03
2023-05-15T06:36:01.809Z,21.07
2023-05-15T06:38:29.823Z,21.04
2023-05-15T06:40:56.777Z,21.08
2023-05-15T06:43:23.757Z,21.12
2023-05-15T06:45:55.747Z,21.17
2023-05-15T06:48:22.737Z,21.21
2023-05-15T06:50:52.731Z,21.25
2023-05-15T06:53:21.323Z,21.27
2023-05-15T06:55:48.256Z,21.27
2023-05-15T06:58:18.316Z,21.16
2023-05-15T07:00:45.590Z,21.13
2023-05-15T07:03:14.599Z,21.14
2023-05-15T07:05:41.482Z,21.18
2023-05-15T07:08:08.381Z,21.25
2023-05-15T07:10:35.298Z,21.36
2023-05-15T07:13:02.352Z,21.42
2023-05-15T07:15:32.164Z,21.49
2023-05-15T07:18:02.568Z,21.55
2023-05-15T07:20:31.694Z,21.57
2023-05-15T07:22:59.533Z,21.61
2023-05-15T07:25:26.680Z,21.65
2023-05-15T07:27:53.771Z,21.71
2023-05-15T07:30:23.752Z,21.73
2023-05-15T07:32:51.399Z,21.76
2023-05-15T07:35:18.570Z,21.78
2023-05-15T07:37:46.749Z,21.84
2023-05-15T07:40:14.007Z,21.86
2023-05-15T07:42:41.019Z,21.82
2023-05-15T07:45:08.599Z,21.83
2023-05-15T07:47:36.344Z,21.82
2023-05-15T07:50:03.570Z,21.80
2023-05-15T07:52:33.233Z,21.79
2023-05-15T07:55:01.494Z,21.80
2023-05-15T07:57:29.015Z,21.84
2023-05-15T07:59:56.472Z,21.85
2023-05-15T08:02:23.400Z,21.83
2023-05-15T08:04:53.309Z,21.83
2023-05-15T08:07:21.071Z,21.81
2023-05-15T08:09:48.070Z,21.84
2023-05-15T08:12:17.685Z,21.83
2023-05-15T08:14:44.656Z,21.85
2023-05-15T08:17:11.632Z,21.87
2023-05-15T08:19:38.537Z,21.85
2023-05-15T08:22:05.417Z,21.83
2023-05-15T08:24:32.307Z,21.83
2023-05-15T08:26:59.080Z,21.88
2023-05-15T08:29:26.077Z,21.91
2023-05-15T08:32:02.520Z,21.93
2023-05-15T08:34:30.591Z,21.92
2023-05-15T08:36:58.489Z,21.87
2023-05-15T08:39:26.080Z,21.87
2023-05-15T08:41:55.881Z,21.92
2023-05-15T08:44:22.980Z,21.97
2023-05-15T08:46:50.000Z,21.99
2023-05-15T08:49:20.834Z,22.04
2023-05-15T08:51:48.499Z,22.08
2023-05-15T08:54:15.774Z,22.04
2023-05-15T08:56:45.525Z,21.98
2023-05-15T08:59:12.423Z,21.97
2023-05-15T09:01:42.071Z,21.98
2023-05-15T09:04:09.545Z,21.99
2023-05-15T09:06:36.524Z,21.96
2023-05-15T09:09:05.592Z,21.97
2023-05-15T09:11:34.166Z,21.99
2023-05-15T09:14:01.279Z,21.97
2023-05-15T09:16:28.324Z,21.97
2023-05-15T09:18:56.459Z,21.97
2023-05-15T09:21:25.519Z,21.98
2023-05-15T09:23:55.740Z,21.93
2023-05-15T09:26:22.702Z,21.78
2023-05-15T09:28:53.170Z,21.69
2023-05-15T09:31:22.033Z,21.60
2023-05-15T09:33:59.524Z,21.67
2023-05-15T09:36:26.598Z,21.75
2023-05-15T09:38:58.409Z,21.78
2023-05-15T09:41:26.201Z,21.83
2023-05-15T09:43:53.646Z,21.84
2023-05-15T09:46:26.551Z,21.83
2023-05-15T09:48:56.729Z,21.82
2023-05-15T09:51:23.846Z,21.80
2023-05-15T09:53:57.518Z,21.77
2023-05-15T09:56:30.550Z,21.77
2023-05-15T09:58:59.161Z,21.77
2023-05-15T10:01:27.832Z,21.76
2023-05-15T10:04:01.428Z,21.75
2023-05-15T10:06:35.186Z,21.78
2023-05-15T10:09:02.306Z,22.16
2023-05-15T10:11:30.258Z,22.37
2023-05-15T10:13:57.622Z,22.35
2023-05-15T10:16:24.610Z,22.30
2023-05-15T10:18:51.895Z,22.29
2023-05-15T10:21:20.228Z,22.34
2023-05-15T10:23:47.282Z,22.33
2023-05-15T10:26:38.332Z,22.30
2023-05-15T10:29:05.756Z,22.25
2023-05-15T10:31:33.417Z,22.23
2023-05-15T10:34:00.433Z,22.24
2023-05-15T10:36:27.431Z,22.22
2023-05-15T10:38:55.881Z,22.27
2023-05-15T10:41:23.382Z,22.22
2023-05-15T10:43:50.355Z,22.18
2023-05-15T10:46:19.225Z,22.19
2023-05-15T10:48:46.040Z,22.19
2023-05-15T10:51:19.514Z,22.24
2023-05-15T10:53:47.567Z,22.16
2023-05-15T10:56:17.876Z,22.11
2023-05-15T10:58:48.622Z,22.20
2023-05-15T11:01:28.608Z,22.24
2023-05-15T11:04:11.458Z,22.21
2023-05-15T11:06:43.040Z,22.16
2023-05-15T11:09:21.528Z,22.11
2023-05-15T11:11:54.333Z,22.10
2023-05-15T11:14:22.237Z,22.13
2023-05-15T11:16:52.820Z,22.02
2023-05-15T11:19:29.038Z,21.98
2023-05-15T11:21:59.369Z,21.93
2023-05-15T11:24:32.577Z,21.90
2023-05-15T11:27:00.226Z,22.05
2023-05-15T11:29:27.443Z,22.09
2023-05-15T11:31:54.535Z,22.13
2023-05-15T11:34:34.439Z,22.21
2023-05-15T11:37:01.652Z,22.35
2023-05-15T11:39:29.096Z,22.47
2023-05-15T11:41:55.959Z,22.49
2023-05-15T11:44:23.068Z,22.49
2023-05-15T11:46:51.515Z,22.48
2023-05-15T11:49:19.284Z,22.53
2023-05-15T11:51:47.873Z,22.53
2023-05-15T11:54:15.085Z,22.51
2023-05-15T11:56:44.986Z,22.44
2023-05-15T11:59:15.301Z,22.46
2023-05-15T12:01:42.608Z,22.48
2023-05-15T12:04:15.005Z,22.47
2023-05-15T12:06:42.258Z,22.41
2023-05-15T12:09:13.280Z,22.11
2023-05-15T12:11:40.272Z,21.69
2023-05-15T12:14:11.097Z,21.67
2023-05-15T12:16:38.124Z,21.68
2023-05-15T12:19:07.806Z,21.71
2023-05-15T12:21:46.503Z,21.73
2023-05-15T12:24:13.582Z,21.76
2023-05-15T12:26:40.537Z,21.85
2023-05-15T12:29:07.641Z,21.93
2023-05-15T12:31:35.360Z,21.96
2023-05-15T12:34:02.509Z,21.97
2023-05-15T12:36:30.350Z,21.79
2023-05-15T12:39:02.132Z,21.76
2023-05-15T12:41:32.545Z,21.74
2023-05-15T12:43:59.758Z,21.67
2023-05-15T12:46:29.575Z,21.59
2023-05-15T12:48:59.937Z,21.67
2023-05-15T12:51:27.301Z,21.54
2023-05-15T12:53:54.373Z,21.44
2023-05-15T12:56:24.057Z,21.48
2023-05-15T12:58:51.278Z,21.38
2023-05-15T13:01:18.713Z,21.25
2023-05-15T13:03:46.307Z,21.27
2023-05-15T13:06:13.880Z,21.25
2023-05-15T13:08:42.039Z,21.12
2023-05-15T13:11:13.720Z,21.17
2023-05-15T13:13:44.726Z,21.18
2023-05-15T13:16:22.723Z,21.15
2023-05-15T13:18:52.045Z,21.23
2023-05-15T13:21:25.584Z,21.17
2023-05-15T13:23:54.515Z,21.19
2023-05-15T13:26:22.823Z,21.04
2023-05-15T13:28:52.501Z,20.95
2023-05-15T13:31:20.449Z,20.98
2023-05-15T13:33:47.869Z,21.09
2023-05-15T13:36:14.821Z,20.98
2023-05-15T13:38:41.584Z,20.92
2023-05-15T13:41:09.338Z,20.86
2023-05-15T13:43:39.246Z,20.90
2023-05-15T13:46:09.572Z,20.87
2023-05-15T13:48:39.245Z,20.83
2023-05-15T13:51:10.223Z,20.91
2023-05-15T13:53:37.168Z,20.93
2023-05-15T13:56:04.454Z,20.95
2023-05-15T13:58:34.404Z,20.83
2023-05-15T14:01:03.640Z,20.83
2023-05-15T14:03:31.018Z,21.00
2023-05-15T14:06:01.649Z,21.07
2023-05-15T14:08:28.657Z,21.09
2023-05-15T14:11:01.323Z,21.20
2023-05-15T14:13:31.949Z,21.27
2023-05-15T14:15:58.830Z,21.14
2023-05-15T14:18:26.468Z,21.15
2023-05-15T14:20:53.367Z,21.24
2023-05-15T14:23:20.435Z,21.19
2023-05-15T14:25:47.341Z,21.14
2023-05-15T14:28:14.394Z,21.17
2023-05-15T14:30:41.834Z,21.21
2023-05-15T14:33:08.901Z,21.21
2023-05-15T14:35:37.302Z,21.21
2023-05-15T14:38:07.130Z,21.25
2023-05-15T14:40:34.685Z,21.27
2023-05-15T14:43:01.762Z,21.23
2023-05-15T14:45:28.709Z,21.16
2023-05-15T14:47:55.788Z,21.07
2023-05-15T14:50:26.162Z,21.05
2023-05-15T14:52:53.701Z,21.02
2023-05-15T14:55:24.874Z,20.96
2023-05-15T14:57:54.203Z,20.97
2023-05-15T15:00:21.326Z,20.93
2023-05-15T15:05:32.305Z,20.65
2023-05-15T15:08:00.865Z,20.64
2023-05-15T15:10:27.778Z,20.55
2023-05-15T15:12:54.703Z,20.46
2023-05-15T15:15:21.566Z,20.41
2023-05-15T15:17:48.343Z,20.34
2023-05-15T15:20:16.195Z,20.24
2023-05-15T15:22:43.050Z,20.21
2023-05-15T15:25:10.161Z,20.20
2023-05-15T15:27:37.208Z,20.19
2023-05-15T15:30:04.964Z,20.24
2023-05-15T15:32:32.016Z,20.24
2023-05-15T15:34:58.920Z,20.13
2023-05-15T15:37:27.277Z,19.96
2023-05-15T15:39:54.255Z,19.93
2023-05-15T15:42:21.106Z,20.09
2023-05-15T15:44:48.005Z,20.10
2023-05-15T15:47:23.510Z,20.13
2023-05-15T15:49:54.208Z,20.20
2023-05-15T15:52:21.378Z,20.18
2023-05-15T15:54:48.577Z,20.14
2023-05-15T15:57:16.354Z,20.14
2023-05-15T15:59:43.126Z,20.13
2023-05-15T16:02:10.095Z,20.14
2023-05-15T16:04:37.460Z,20.13
2023-05-15T16:07:04.649Z,20.11
2023-05-15T16:09:31.997Z,20.11
2023-05-15T16:11:59.134Z,20.06
2023-05-15T16:14:28.211Z,19.98
2023-05-15T16:16:55.236Z,19.94
2023-05-15T16:19:22.109Z,19.93
2023-05-15T16:21:49.282Z,19.82
2023-05-15T16:24:16.204Z,19.76
2023-05-15T16:26:43.016Z,19.68
2023-05-15T16:29:10.001Z,19.59
2023-05-15T16:31:38.413Z,19.49
2023-05-15T16:34:05.839Z,19.39
2023-05-15T16:36:32.908Z,19.25
2023-05-15T16:39:00.182Z,19.16
2023-05-15T16:41:27.251Z,19.10
2023-05-15T16:43:54.104Z,19.00
2023-05-15T16:46:21.061Z,18.98
2023-05-15T16:48:47.975Z,18.90
2023-05-15T16:51:15.103Z,18.83
2023-05-15T16:53:41.914Z,18.78
2023-05-15T16:56:08.861Z,18.75
2023-05-15T16:58:35.835Z,18.70
2023-05-15T17:01:02.855Z,18.57
2023-05-15T17:03:30.572Z,18.41
2023-05-15T17:05:57.586Z,18.32
2023-05-15T17:08:24.436Z,18.29
2023-05-15T17:10:51.319Z,18.25
2023-05-15T17:13:18.204Z,18.20
2023-05-15T17:15:47.363Z,18.22
2023-05-15T17:18:14.316Z,18.07
2023-05-15T17:20:41.465Z,17.96
2023-05-15T17:23:08.288Z,17.88
2023-05-15T17:25:35.456Z,17.81
2023-05-15T17:28:02.250Z,17.84
2023-05-15T17:30:29.134Z,17.82
2023-05-15T17:32:56.078Z,17.76
2023-05-15T17:35:22.909Z,17.61
2023-05-15T17:37:49.861Z,17.53
2023-05-15T17:40:16.833Z,17.51
2023-05-15T17:42:43.797Z,17.42
2023-05-15T17:45:10.947Z,17.37
2023-05-15T17:47:37.933Z,17.32
2023-05-15T17:50:05.953Z,17.27
2023-05-15T17:52:34.895Z,17.26
2023-05-15T17:55:01.717Z,17.26
2023-05-15T17:57:28.964Z,17.20
2023-05-15T17:59:55.972Z,17.18
2023-05-15T18:02:22.777Z,17.16
2023-05-15T18:04:49.583Z,17.19
2023-05-15T18:07:16.383Z,17.23
2023-05-15T18:09:43.409Z,17.22
2023-05-15T18:12:10.472Z,17.21
2023-05-15T18:14:38.319Z,17.15
2023-05-15T18:17:06.763Z,17.16
2023-05-15T18:19:33.584Z,17.08
2023-05-15T18:22:03.372Z,17.02
2023-05-15T18:24:30.418Z,16.88
2023-05-15T18:26:57.418Z,16.81
2023-05-15T18:29:24.272Z,16.74
2023-05-15T18:31:51.363Z,16.79
2023-05-15T18:34:18.710Z,16.81
2023-05-15T18:36:45.568Z,16.81
2023-05-15T18:39:12.660Z,16.78
2023-05-15T18:41:39.523Z,16.77
2023-05-15T18:44:06.375Z,16.77
2023-05-15T18:46:34.229Z,16.76
2023-05-15T18:49:01.477Z,16.75
2023-05-15T18:51:28.374Z,16.81
2023-05-15T18:53:55.255Z,16.79
2023-05-15T18:56:22.727Z,16.70
2023-05-15T18:58:49.510Z,16.68
2023-05-15T19:01:17.240Z,16.64
2023-05-15T19:03:44.175Z,16.62
2023-05-15T19:06:12.250Z,16.54
2023-05-15T19:08:39.125Z,16.49
2023-05-15T19:11:06.050Z,16.43
2023-05-15T19:13:33.367Z,16.44
2023-05-15T19:16:00.357Z,16.44
2023-05-15T19:18:27.270Z,16.47
2023-05-15T19:20:54.449Z,16.49
2023-05-15T19:23:21.367Z,16.50
2023-05-15T19:25:48.332Z,16.53
2023-05-15T19:28:15.254Z,16.61
2023-05-15T19:30:42.078Z,16.64
2023-05-15T19:33:08.938Z,16.62
2023-05-15T19:35:37.514Z,16.51
2023-05-15T19:38:04.736Z,16.44
2023-05-15T19:40:31.486Z,16.49
2023-05-15T19:42:58.229Z,16.48
2023-05-15T19:45:25.043Z,16.43
2023-05-15T19:47:51.946Z,16.37
2023-05-15T19:50:18.780Z,16.38
2023-05-15T19:52:45.791Z,16.39
2023-05-15T19:55:12.629Z,16.43
2023-05-15T19:57:42.888Z,16.45
2023-05-15T20:00:10.690Z,16.45
2023-05-15T20:02:37.630Z,16.45
2023-05-15T20:05:05.247Z,16.43
2023-05-15T20:07:32.166Z,16.39
2023-05-15T20:09:59.096Z,16.35
2023-05-15T20:12:25.915Z,16.29
2023-05-15T20:14:52.703Z,16.26
2023-05-15T20:17:19.552Z,16.20
2023-05-15T20:19:48.261Z,16.16
2023-05-15T20:22:15.233Z,16.21
2023-05-15T20:24:42.255Z,16.20
2023-05-15T20:27:09.083Z,16.15
2023-05-15T20:29:36.149Z,16.09
2023-05-15T20:32:03.464Z,16.07
2023-05-15T20:34:30.673Z,16.07
2023-05-15T20:36:57.526Z,16.09
2023-05-15T20:39:24.386Z,16.09
2023-05-15T20:41:51.319Z,16.01
2023-05-15T20:44:18.162Z,15.98
2023-05-15T20:46:45.079Z,15.94
2023-05-15T20:49:12.038Z,15.94
2023-05-15T20:51:38.840Z,16.00
2023-05-15T20:54:05.756Z,16.03
2023-05-15T20:56:32.546Z,16.01
2023-05-15T20:59:00.084Z,16.02
2023-05-15T21:01:29.908Z,15.99
2023-05-15T21:03:56.862Z,15.98
2023-05-15T21:06:23.789Z,15.95
2023-05-15T21:08:51.301Z,15.96
2023-05-15T21:11:18.106Z,15.98
2023-05-15T21:13:44.899Z,16.00
2023-05-15T21:16:11.753Z,16.00
2023-05-15T21:18:39.262Z,15.95
2023-05-15T21:21:09.185Z,15.90
2023-05-15T21:23:36.810Z,15.93
2023-05-15T21:26:03.885Z,15.98
2023-05-15T21:28:30.918Z,15.97
2023-05-15T21:30:57.865Z,15.96
2023-05-15T21:33:24.838Z,15.94
2023-05-15T21:35:51.762Z,15.93
2023-05-15T21:38:18.749Z,15.94
2023-05-15T21:40:45.563Z,15.93
2023-05-15T21:43:12.471Z,15.92
2023-05-15T21:45:39.282Z,15.87
2023-05-15T21:48:06.230Z,15.87
2023-05-15T21:50:33.099Z,15.89
2023-05-15T21:53:00.029Z,15.88
2023-05-15T21:55:26.827Z,15.84
2023-05-15T21:57:53.650Z,15.73
2023-05-15T22:00:20.998Z,15.72
2023-05-15T22:02:47.880Z,15.70
2023-05-15T22:05:14.940Z,15.69
2023-05-15T22:07:41.762Z,15.70
2023-05-15T22:10:08.807Z,15.70
2023-05-15T22:12:35.866Z,15.65
2023-05-15T22:15:02.699Z,15.62
2023-05-15T22:17:30.763Z,15.58
2023-05-15T22:20:08.192Z,15.59
2023-05-15T22:22:35.492Z,15.60
2023-05-15T22:25:02.335Z,15.67
2023-05-15T22:27:29.618Z,15.71
2023-05-15T22:29:56.568Z,15.69
2023-05-15T22:32:23.543Z,15.65
2023-05-15T22:34:50.407Z,15.70
2023-05-15T22:37:17.180Z,15.74
2023-05-15T22:39:44.289Z,15.71
2023-05-15T22:42:11.121Z,15.69
2023-05-15T22:44:38.026Z,15.68
2023-05-15T22:47:05.110Z,15.63
2023-05-15T22:49:31.909Z,15.60
2023-05-15T22:51:58.833Z,15.60
2023-05-15T22:54:25.717Z,15.60
2023-05-15T22:56:52.552Z,15.58
2023-05-15T22:59:19.498Z,15.63
2023-05-15T23:01:46.576Z,15.58
2023-05-15T23:04:13.558Z,15.50
2023-05-15T23:06:41.137Z,15.43
2023-05-15T23:09:08.672Z,15.44
2023-05-15T23:11:35.620Z,15.45
2023-05-15T23:14:03.131Z,15.43
2023-05-15T23:16:30.029Z,15.42
2023-05-15T23:18:57.093Z,15.34
2023-05-15T23:21:23.880Z,15.26
2023-05-15T23:23:51.000Z,15.25
2023-05-15T23:26:17.810Z,15.24
2023-05-15T23:28:44.846Z,15.17
2023-05-15T23:31:14.824Z,15.11
2023-05-15T23:33:41.779Z,15.04
2023-05-15T23:36:08.974Z,15.07
2023-05-15T23:38:35.909Z,15.05
2023-05-15T23:41:02.732Z,15.06
2023-05-15T23:43:29.779Z,15.09
2023-05-15T23:45:56.614Z,15.09
2023-05-15T23:48:23.491Z,15.02
2023-05-15T23:50:51.656Z,15.01
2023-05-15T23:53:18.517Z,14.96
2023-05-15T23:55:45.669Z,14.88
2023-05-15T23:58:12.474Z,14.90
